ロサンゼルス の空港の天気 - METARとTAF

ロサンゼルス国際空港 ( KLAX / LAX ) - アメリカ カリフォルニア州ロサンゼルス
飛行場実況気象(Metar)
観測時間08/13 21:53 PDT (08/14 04:53 UTC)
風向・風速南南西 2m/s
視程10km以上
天気現象
全天の8割程度の雲 雲底高度 4570m
全天の8割程度の雲 雲底高度 6100m
気温21.1℃
湿度76%
気圧1010.9hPa
METARKLAX 140453Z 21003KT 10SM BKN150 BKN200 21/17 A2986 RMK AO2 SLP109 T02110167
過去の天気等 Google飛行場航空写真 Wunderground天気予報

過去48時間のMETAR

飛行場予報(TAF)
発表時間: 8/13 20:09 PDT (8/14 03:09 UTC)
予報対象時間: 13日20時 PDT ~ 14日23時 PDT
風向・風速西 4m/s
視程10km以上
全天の8割程度の雲 雲底高度 4570m
14日4時 PDT から
風向・風速不定 2m/s
視程10km以上
全天の4割程度の雲 雲底高度 4570m
14日10時 PDT から
風向・風速西南西 3m/s
視程10km以上
少しの雲 雲底高度 3050m
全天の4割程度の雲 雲底高度 4570m
14日13時 PDT から
風向・風速西 6m/s
視程10km以上
少しの雲 雲底高度 3050m
全天の4割程度の雲 雲底高度 4570m
14日21時 PDT から
風向・風速西 3m/s
視程10km以上
全天の4割程度の雲 雲底高度 4570m
KLAX 140309Z 1403/1506 26008KT P6SM BKN150
FM141100 VRB03KT P6SM SCT150
FM141700 24006KT P6SM FEW100 SCT150
FM142000 26012KT P6SM FEW100 SCT150
FM150400 26005KT P6SM SCT150